Time;durP1;ratioP1;P1;durP2;ratioP2;P2;SDS_P1;SDS_P2;PMS_P1;PMS_P2;Temp;Humidity;BMP_temperature;BMP_pressure;BME280_temperature;BME280_humidity;BME280_pressure;Samples;Min_cycle;Max_cycle;Signal;HPM_P1;HPM_P2
2021/03/08 00:00:27;;;;;;;31.92;16.67;;;4.80;77.50;;;5.01;62.30;101234.78;5060643;28;20080;-81
2021/03/08 00:02:56;;;;;;;30.70;16.90;;;4.80;77.40;;;5.03;62.59;101230.13;5060600;28;20075;-81
2021/03/08 00:05:24;;;;;;;31.13;16.52;;;4.80;77.40;;;5.02;62.65;101237.31;5060575;28;20049;-81
2021/03/08 00:07:51;;;;;;;32.40;17.02;;;4.80;77.60;;;5.02;62.70;101234.63;5060368;28;20071;-81
2021/03/08 00:10:21;;;;;;;38.08;17.55;;;4.80;77.90;;;5.05;62.74;101233.53;5060776;28;20052;-82
2021/03/08 00:12:49;;;;;;;33.03;16.83;;;4.80;77.60;;;5.02;62.83;101223.84;5059691;28;20580;-81
2021/03/08 00:15:17;;;;;;;33.92;17.65;;;4.80;77.60;;;5.05;62.36;101228.97;5060532;28;20079;-81
2021/03/08 00:17:46;;;;;;;37.92;18.70;;;4.90;77.20;;;5.07;62.38;101227.00;5059099;28;20048;-82
2021/03/08 00:20:15;;;;;;;34.80;17.50;;;4.90;77.50;;;5.05;62.57;101223.59;5060004;28;20086;-81
2021/03/08 00:22:44;;;;;;;33.50;17.60;;;4.90;77.60;;;5.06;62.63;101222.63;5059299;28;20114;-81
2021/03/08 00:25:14;;;;;;;33.67;18.48;;;4.80;77.40;;;5.08;62.66;101233.25;5060304;28;20445;-81
2021/03/08 00:27:42;;;;;;;33.97;18.67;;;4.90;77.50;;;5.09;62.58;101235.81;5058869;28;20132;-81
2021/03/08 00:30:10;;;;;;;38.00;18.00;;;4.90;77.50;;;5.07;62.55;101232.41;5060149;28;20123;-81
2021/03/08 00:32:37;;;;;;;40.47;19.38;;;4.90;77.50;;;5.08;62.38;101233.25;5060206;28;20129;-81
2021/03/08 00:35:06;;;;;;;36.38;19.13;;;4.90;76.80;;;5.11;62.26;101237.53;5059379;28;20076;-81
2021/03/08 00:37:34;;;;;;;37.85;19.52;;;4.90;76.90;;;5.09;62.59;101237.66;5059273;28;20520;-81
2021/03/08 00:40:03;;;;;;;37.20;18.92;;;5.00;77.30;;;5.09;62.36;101229.59;5059948;28;20565;-82
2021/03/08 00:42:31;;;;;;;38.05;19.92;;;4.90;77.10;;;5.12;62.13;101229.28;5059182;28;20387;-82
2021/03/08 00:44:57;;;;;;;40.47;20.13;;;5.00;77.00;;;5.14;61.96;101229.16;5057537;28;20132;-82
2021/03/08 00:47:25;;;;;;;40.10;20.17;;;5.00;76.60;;;5.13;62.16;101216.69;5059643;28;20150;-82
2021/03/08 00:49:53;;;;;;;41.97;19.63;;;5.00;76.70;;;5.13;62.62;101214.84;5058710;28;20041;-82
2021/03/08 00:52:21;;;;;;;42.78;19.48;;;5.00;77.10;;;5.13;62.63;101220.22;5059776;28;20197;-81
2021/03/08 00:54:48;;;;;;;38.38;19.52;;;5.00;77.20;;;5.12;62.50;101223.91;5059119;28;20086;-81
2021/03/08 00:57:17;;;;;;;36.95;19.52;;;4.90;77.50;;;5.13;62.62;101224.78;5058304;28;20509;-81
2021/03/08 00:59:48;;;;;;;39.28;18.65;;;4.90;77.30;;;5.11;62.46;101224.06;5057943;28;20056;-81
2021/03/08 01:02:16;;;;;;;38.42;20.17;;;4.90;77.50;;;5.08;62.68;101219.75;5058711;28;20045;-81
2021/03/08 01:04:44;;;;;;;40.13;20.15;;;5.00;77.40;;;5.07;63.00;101209.97;5057085;28;20052;-81
2021/03/08 01:07:13;;;;;;;36.65;19.10;;;4.90;77.90;;;5.09;62.79;101203.44;5057263;28;20044;-81
2021/03/08 01:09:42;;;;;;;45.65;19.80;;;4.90;77.80;;;5.11;63.07;101205.19;5058516;28;20118;-81
2021/03/08 01:12:12;;;;;;;40.42;20.73;;;4.90;78.20;;;5.09;63.47;101206.16;5058574;28;20048;-81
2021/03/08 01:14:42;;;;;;;38.90;20.35;;;4.90;78.50;;;5.09;63.24;101199.91;5057143;28;20059;-81
2021/03/08 01:17:09;;;;;;;40.38;20.67;;;5.00;78.60;;;5.05;63.64;101199.31;5058513;28;20048;-81
2021/03/08 01:19:35;;;;;;;37.10;20.67;;;4.80;78.50;;;5.05;63.71;101201.16;5058073;28;20045;-81
2021/03/08 01:22:03;;;;;;;43.35;21.35;;;4.80;78.60;;;5.06;63.04;101198.34;5057929;28;20044;-81
2021/03/08 01:24:30;;;;;;;41.72;21.35;;;4.80;78.50;;;5.05;63.33;101191.22;5057355;28;20128;-81
2021/03/08 01:26:56;;;;;;;42.53;21.85;;;4.80;78.40;;;5.05;63.26;101195.75;5056843;28;20497;-81
2021/03/08 01:29:23;;;;;;;42.55;21.98;;;4.90;78.50;;;5.06;63.36;101198.34;5057550;28;20079;-81
2021/03/08 01:31:51;;;;;;;40.53;21.38;;;4.80;78.70;;;5.02;63.05;101186.06;5057634;28;20049;-81
2021/03/08 01:34:17;;;;;;;43.42;21.10;;;4.80;78.60;;;5.07;63.92;101191.94;5059897;28;20130;-81
2021/03/08 01:36:44;;;;;;;43.63;20.75;;;4.80;78.80;;;5.07;63.64;101191.09;5057692;28;20052;-81
2021/03/08 01:39:11;;;;;;;43.40;21.58;;;4.80;78.80;;;5.07;63.54;101186.53;5058836;28;20101;-81
2021/03/08 01:41:38;;;;;;;42.75;21.17;;;4.90;78.80;;;5.05;63.75;101188.50;5058841;28;20049;-81
2021/03/08 01:44:06;;;;;;;46.38;21.92;;;4.80;79.00;;;5.06;63.92;101189.38;5058101;28;20071;-81
2021/03/08 01:46:33;;;;;;;42.67;21.65;;;4.80;79.00;;;5.03;63.95;101187.78;5055585;28;20088;-82
2021/03/08 01:49:00;;;;;;;43.72;22.33;;;4.80;79.40;;;5.05;63.77;101188.50;5057833;28;20044;-81
2021/03/08 01:51:27;;;;;;;43.03;21.63;;;4.90;79.10;;;5.05;63.90;101187.66;5057808;28;20068;-81
2021/03/08 01:53:54;;;;;;;37.28;20.85;;;4.80;78.90;;;5.06;63.80;101187.53;5058092;28;20581;-81
2021/03/08 01:56:21;;;;;;;44.05;20.73;;;4.80;79.20;;;5.06;64.12;101190.25;5056783;28;20080;-81
2021/03/08 01:58:48;;;;;;;42.90;22.33;;;4.80;79.40;;;5.06;64.40;101182.16;5057740;28;20063;-81
2021/03/08 02:01:15;;;;;;;46.33;21.75;;;4.80;79.50;;;5.06;64.47;101176.75;5058461;28;20561;-82
2021/03/08 02:03:42;;;;;;;43.83;22.02;;;4.80;79.70;;;5.06;64.03;101174.06;5058102;28;20044;-82
2021/03/08 02:06:11;;;;;;;41.65;21.88;;;4.80;79.30;;;5.08;64.09;101174.78;5057175;28;20131;-81
2021/03/08 02:08:38;;;;;;;47.63;23.92;;;4.80;79.60;;;5.06;64.36;101174.06;5058341;28;20131;-82
2021/03/08 02:11:05;;;;;;;42.42;22.48;;;4.80;79.40;;;5.05;64.27;101161.53;5057863;28;20045;-82
2021/03/08 02:14:21;;;;;;;43.28;21.83;;;4.90;79.60;;;5.07;64.69;101170.34;5057384;28;20123;-82
2021/03/08 02:16:56;;;;;;;50.60;23.67;;;4.80;80.00;;;5.06;64.51;101160.56;5058005;28;20048;-82
2021/03/08 02:20:10;;;;;;;41.58;21.35;;;4.80;79.90;;;5.06;64.84;101159.69;5058441;28;20045;-82
2021/03/08 02:23:30;;;;;;;43.50;22.48;;;4.80;80.00;;;5.05;64.65;101158.84;5036433;28;20119;-82
2021/03/08 02:26:32;;;;;;;47.28;22.17;;;4.80;80.10;;;5.06;65.12;101155.16;5036831;28;20087;-81
2021/03/08 02:30:03;;;;;;;44.63;21.77;;;4.80;80.00;;;5.03;65.27;101151.88;5056955;28;20126;-81
2021/03/08 02:32:35;;;;;;;44.53;21.98;;;4.80;80.50;;;5.05;65.20;101158.84;5056896;28;20444;-81
2021/03/08 02:35:08;;;;;;;44.60;23.00;;;4.80;80.50;;;5.03;65.06;101143.78;5059049;28;20413;-82
2021/03/08 02:37:43;;;;;;;48.08;22.55;;;4.80;80.60;;;5.04;65.02;101146.31;5058092;28;20053;-81
2021/03/08 02:40:18;;;;;;;48.85;22.55;;;4.80;80.50;;;5.04;65.23;101143.63;5058379;28;20114;-81
2021/03/08 02:42:52;;;;;;;46.92;22.42;;;4.80;80.60;;;5.05;65.60;101139.97;5057636;28;20112;-81
2021/03/08 02:45:22;;;;;;;43.53;22.35;;;4.80;80.80;;;5.06;65.50;101138.97;5058819;28;20069;-81
2021/03/08 02:47:52;;;;;;;47.95;23.55;;;4.90;80.90;;;5.04;65.65;101140.94;5056620;28;20044;-82
2021/03/08 02:50:22;;;;;;;49.15;22.90;;;4.80;81.10;;;5.02;65.65;101137.50;5057592;28;20509;-82
2021/03/08 02:52:55;;;;;;;48.33;22.80;;;4.80;81.20;;;5.01;65.47;101143.06;5057366;28;20052;-81
2021/03/08 02:55:26;;;;;;;49.13;22.55;;;4.70;81.20;;;5.01;66.07;101141.22;5057173;28;20144;-82
2021/03/08 02:57:55;;;;;;;46.70;23.15;;;4.70;81.50;;;4.99;65.95;101135.09;5056879;28;20139;-82
2021/03/08 03:00:23;;;;;;;43.95;22.05;;;4.70;81.60;;;4.98;65.81;101136.06;5056160;28;20049;-82
2021/03/08 03:02:52;;;;;;;46.95;24.00;;;4.70;81.70;;;5.00;66.04;101141.34;5056871;28;20044;-82
2021/03/08 03:05:20;;;;;;;47.00;23.92;;;4.70;81.80;;;5.00;66.07;101144.88;5057218;28;20123;-82
2021/03/08 03:07:52;;;;;;;46.10;23.27;;;4.70;81.90;;;5.01;65.93;101149.31;5058960;28;20197;-82
2021/03/08 03:10:24;;;;;;;48.28;24.40;;;4.70;82.00;;;4.97;66.49;101150.56;5062002;28;20052;-82
2021/03/08 03:12:53;;;;;;;48.92;23.98;;;4.70;82.00;;;4.99;66.12;101142.31;5061536;28;20071;-82
2021/03/08 03:15:20;;;;;;;49.58;23.83;;;4.70;82.00;;;5.01;66.64;101135.81;5062180;28;20095;-82
2021/03/08 03:17:48;;;;;;;44.70;22.85;;;4.70;82.20;;;5.03;66.26;101133.84;5061408;28;20090;-82
2021/03/08 03:20:17;;;;;;;47.03;22.85;;;4.70;82.20;;;4.99;66.49;101142.31;5062829;28;20101;-81
2021/03/08 03:22:49;;;;;;;48.17;22.75;;;4.70;82.10;;;4.98;66.35;101143.31;5061340;28;20079;-82
2021/03/08 03:25:20;;;;;;;47.42;22.48;;;4.70;82.00;;;4.99;66.28;101143.19;5061416;28;20041;-82
2021/03/08 03:27:47;;;;;;;;;;;4.70;82.30;;;4.99;66.54;101148.59;5061899;28;20049;-82
2021/03/08 03:30:17;;;;;;;49.80;22.63;;;4.70;82.50;;;5.00;66.33;101152.97;5061891;28;20043;-82
2021/03/08 03:32:45;;;;;;;49.05;24.52;;;4.70;82.30;;;4.99;66.48;101148.59;5062092;28;20041;-82
2021/03/08 03:35:14;;;;;;;47.58;24.17;;;4.70;82.40;;;4.98;66.24;101149.56;5061115;28;20053;-81
2021/03/08 03:37:44;;;;;;;52.72;25.75;;;4.70;82.30;;;4.99;66.29;101143.19;5060651;28;20118;-81
2021/03/08 03:40:15;;;;;;;50.05;23.90;;;4.70;82.10;;;5.02;66.17;101144.75;5061026;28;20232;-81
2021/03/08 03:42:43;;;;;;;48.97;24.00;;;4.70;82.30;;;5.01;66.43;101151.16;5060007;28;20152;-81
2021/03/08 03:45:12;;;;;;;46.80;23.73;;;4.80;82.30;;;4.97;66.57;101145.16;5060181;28;20079;-81
2021/03/08 03:47:39;;;;;;;50.08;24.67;;;4.60;82.60;;;4.99;66.92;101147.72;5058403;28;20073;-81
2021/03/08 03:50:08;;;;;;;48.25;23.83;;;4.60;82.80;;;4.97;66.98;101150.56;5060348;28;20052;-81
2021/03/08 03:52:35;;;;;;;50.30;24.20;;;4.70;82.90;;;4.97;67.12;101150.56;5059861;28;20055;-81
2021/03/08 03:55:07;;;;;;;53.83;24.20;;;4.60;82.90;;;4.97;67.06;101150.56;5060011;28;20063;-81
2021/03/08 03:57:41;;;;;;;54.10;24.73;;;4.60;82.70;;;4.95;67.11;101148.97;5059061;28;20137;-81
2021/03/08 04:00:10;;;;;;;50.22;25.02;;;4.60;82.80;;;4.94;67.24;101156.22;5060850;28;20080;-81
2021/03/08 04:02:43;;;;;;;49.38;23.45;;;4.60;83.30;;;4.95;67.43;101152.53;5060200;28;20040;-81
2021/03/08 04:05:15;;;;;;;53.15;24.65;;;4.60;83.20;;;4.95;67.02;101152.53;5061870;28;20064;-81
2021/03/08 04:07:44;;;;;;;49.92;24.38;;;4.60;83.20;;;4.95;67.03;101154.38;5060089;28;20162;-80
2021/03/08 04:10:13;;;;;;;50.15;24.35;;;4.80;83.10;;;4.97;67.36;101157.78;5062298;28;20052;-80
2021/03/08 04:12:44;;;;;;;48.40;24.17;;;4.60;83.20;;;4.99;66.94;101162.06;5060924;28;20045;-80
2021/03/08 04:15:13;;;;;;;49.90;25.27;;;4.60;83.20;;;4.99;67.23;101164.78;5061052;28;20135;-81
2021/03/08 04:17:43;;;;;;;54.67;25.63;;;4.70;83.40;;;4.98;67.40;101165.75;5059098;28;20079;-81
2021/03/08 04:20:15;;;;;;;50.33;24.08;;;4.70;83.40;;;4.95;67.29;101157.94;5060588;28;20043;-80
2021/03/08 04:22:47;;;;;;;56.90;25.85;;;4.60;83.50;;;4.96;67.46;101165.03;5060884;28;20048;-80
2021/03/08 04:25:18;;;;;;;51.75;24.85;;;4.60;83.60;;;4.96;67.70;101167.72;5060835;28;20072;-80
2021/03/08 04:27:47;;;;;;;50.35;25.67;;;4.70;83.70;;;4.97;67.59;101166.75;5058845;28;20107;-81
2021/03/08 04:30:15;;;;;;;50.85;24.52;;;4.60;83.40;;;4.96;67.46;101165.03;5060028;28;20045;-80
2021/03/08 04:32:44;;;;;;;50.97;25.77;;;4.70;83.70;;;4.95;67.24;101163.34;5060375;28;20079;-81
2021/03/08 04:35:12;;;;;;;51.08;25.25;;;4.60;83.50;;;4.98;67.75;101170.28;5061172;28;20450;-81
2021/03/08 04:37:40;;;;;;;51.22;25.33;;;4.70;83.60;;;5.00;67.26;101166.47;5058483;28;20083;-81
2021/03/08 04:40:09;;;;;;;54.67;25.58;;;4.70;83.50;;;4.97;67.73;101171.28;5059033;28;20476;-80
2021/03/08 04:42:38;;;;;;;56.60;25.63;;;4.70;83.70;;;4.97;68.10;101168.56;5059009;28;20138;-81
2021/03/08 04:45:07;;;;;;;57.72;25.73;;;4.70;83.70;;;4.96;67.93;101175.81;5060107;28;20068;-80
2021/03/08 04:47:35;;;;;;;51.13;24.52;;;4.60;83.60;;;4.98;67.59;101168.44;5057763;28;20499;-81
2021/03/08 04:50:03;;;;;;;52.30;24.45;;;4.70;83.70;;;4.98;67.67;101181.09;5059473;28;20040;-81
2021/03/08 04:52:30;;;;;;;51.38;24.60;;;4.70;83.70;;;4.99;67.70;101175.56;5058191;28;20476;-81
2021/03/08 04:54:57;;;;;;;53.92;24.70;;;4.70;83.70;;;4.95;68.13;101174.13;5058712;28;20075;-81
2021/03/08 04:57:25;;;;;;;53.83;25.33;;;4.70;83.80;;;4.95;68.21;101168.72;5059935;28;20466;-80
2021/03/08 04:59:53;;;;;;;50.15;24.98;;;4.70;84.00;;;4.98;68.07;101167.59;5060886;28;20095;-80
2021/03/08 05:02:22;;;;;;;58.08;25.85;;;4.70;83.90;;;4.98;68.17;101173.84;5060204;28;20044;-80
2021/03/08 05:04:52;;;;;;;53.03;25.23;;;4.70;83.70;;;5.02;67.86;101174.44;5060957;28;20097;-80
2021/03/08 05:07:23;;;;;;;50.63;25.77;;;4.70;83.80;;;5.01;68.04;101173.59;5067034;28;20060;-80
2021/03/08 05:09:53;;;;;;;53.20;26.58;;;4.70;84.10;;;4.99;67.82;101172.88;5068767;28;20044;-80
2021/03/08 05:12:22;;;;;;;50.78;25.77;;;4.70;84.10;;;5.01;68.01;101173.59;5069496;28;20048;-79
2021/03/08 05:14:50;;;;;;;52.10;25.25;;;4.70;84.20;;;5.01;67.95;101176.28;5067687;28;20090;-80
2021/03/08 05:17:18;;;;;;;50.88;25.15;;;4.70;84.10;;;5.00;68.26;101171.88;5069130;28;20033;-80
2021/03/08 05:19:47;;;;;;;55.40;25.98;;;4.70;84.00;;;5.01;68.27;101164.66;5067824;28;20056;-80
2021/03/08 05:22:17;;;;;;;54.53;26.98;;;4.70;83.90;;;5.04;68.04;101175.16;5068051;28;20056;-80
2021/03/08 05:24:49;;;;;;;53.55;25.85;;;4.70;84.10;;;5.02;67.82;101175.28;5066399;28;20049;-80
2021/03/08 05:27:17;;;;;;;58.38;26.40;;;4.70;83.80;;;5.04;68.27;101176.00;5068074;28;20536;-80
2021/03/08 05:29:46;;;;;;;56.13;27.48;;;4.70;83.90;;;5.03;68.18;101171.63;5065166;28;20141;-80
2021/03/08 05:32:16;;;;;;;51.80;25.95;;;4.70;83.80;;;5.05;67.76;101171.47;5069009;28;20059;-80
2021/03/08 05:34:48;;;;;;;49.22;25.08;;;4.70;84.10;;;5.04;68.10;101173.31;5067487;28;20735;-80
2021/03/08 05:37:17;;;;;;;55.75;26.40;;;4.70;84.10;;;5.04;68.09;101167.91;5066175;28;20045;-80
2021/03/08 05:39:45;;;;;;;59.38;26.55;;;4.80;84.10;;;5.05;68.52;101176.88;5065194;28;20052;-80
2021/03/08 05:42:14;;;;;;;56.72;26.77;;;4.70;84.30;;;5.01;68.27;101178.97;5067728;28;20479;-81
2021/03/08 05:44:48;;;;;;;56.55;27.38;;;4.70;84.30;;;5.01;68.14;101184.38;5067530;28;20045;-80
2021/03/08 05:47:35;;;;;;;56.85;26.38;;;4.70;84.40;;;5.00;68.48;101177.25;5069785;28;20071;-81
2021/03/08 05:50:36;;;;;;;55.63;25.92;;;4.70;84.30;;;5.00;68.43;101185.34;5072636;28;20045;-81
2021/03/08 05:54:22;;;;;;;52.50;25.45;;;4.70;84.60;;;5.02;68.37;101180.69;5068684;28;20049;-81
2021/03/08 05:57:32;;;;;;;57.42;26.50;;;4.70;84.50;;;5.00;68.69;101182.66;4938017;28;20541;-80
2021/03/08 06:00:20;;;;;;;55.55;27.65;;;4.70;84.60;;;4.99;69.00;101186.34;5067449;28;20037;-80
2021/03/08 06:03:14;;;;;;;58.42;26.05;;;4.70;84.70;;;4.98;68.51;101186.47;5067366;28;20132;-80
2021/03/08 06:06:38;;;;;;;51.70;26.08;;;4.70;84.70;;;4.98;68.69;101189.19;5068107;28;20062;-80
2021/03/08 06:09:22;;;;;;;54.30;26.17;;;4.70;84.70;;;5.02;68.58;101190.63;5070666;28;20527;-80
2021/03/08 06:12:03;;;;;;;55.95;27.50;;;4.70;84.80;;;5.04;68.49;101189.50;5069579;28;20052;-79
2021/03/08 06:14:39;;;;;;;57.35;27.83;;;4.70;84.70;;;5.04;68.65;101185.94;5063497;28;20052;-79
2021/03/08 06:17:10;;;;;;;53.38;27.13;;;4.70;84.50;;;5.02;68.97;101191.47;5062303;28;20045;-79
2021/03/08 06:19:39;;;;;;;60.58;27.88;;;4.70;84.80;;;5.04;68.75;101189.50;5063408;28;20051;-80
2021/03/08 06:22:11;;;;;;;60.60;26.67;;;4.80;84.60;;;5.05;69.04;101198.47;5062221;28;20053;-80
2021/03/08 06:24:39;;;;;;;58.65;27.55;;;4.80;84.70;;;5.06;68.90;101198.34;5056048;28;20041;-84
2021/03/08 06:27:08;;;;;;;58.20;29.63;;;4.80;84.70;;;5.09;68.49;101203.44;5059282;28;20043;-81
2021/03/08 06:29:37;;;;;;;59.38;27.52;;;4.80;84.60;;;5.09;69.08;101210.69;5058172;28;20560;-81
2021/03/08 06:32:07;;;;;;;60.15;27.90;;;4.80;84.60;;;5.13;69.25;101209.44;5061928;28;20074;-80
2021/03/08 06:34:35;;;;;;;60.10;28.70;;;4.90;84.90;;;5.16;69.06;101214.59;5062014;28;20044;-80
2021/03/08 06:37:05;;;;;;;56.70;27.98;;;4.90;84.80;;;5.17;68.85;101212.72;5058827;28;20514;-81
2021/03/08 06:39:34;;;;;;;65.53;28.52;;;4.90;84.60;;;5.19;68.85;101213.44;5060277;28;20047;-81
2021/03/08 06:42:01;;;;;;;62.65;28.85;;;5.00;84.40;;;5.19;68.93;101218.84;5059891;28;20076;-80
2021/03/08 06:44:29;;;;;;;56.05;28.77;;;5.00;84.40;;;5.19;68.99;101218.84;5060015;28;20045;-81
2021/03/08 06:46:55;;;;;;;57.65;27.83;;;5.00;84.70;;;5.21;69.04;101222.28;5060554;28;20064;-80
2021/03/08 06:49:22;;;;;;;63.13;28.45;;;5.00;84.60;;;5.23;68.72;101223.00;5057558;28;20516;-80
2021/03/08 06:52:07;;;;;;;54.70;26.98;;;5.00;84.20;;;5.24;69.05;101227.41;5059237;28;20048;-80
2021/03/08 06:54:36;;;;;;;57.08;28.67;;;5.00;84.70;;;5.21;69.21;101227.66;5058262;28;20501;-80
2021/03/08 06:57:19;;;;;;;59.85;28.67;;;5.00;85.10;;;5.22;69.30;101226.69;5057946;28;20139;-80
2021/03/08 06:59:52;;;;;;;57.75;27.13;;;5.00;85.00;;;5.23;69.56;101241.88;5061979;28;20040;-80
2021/03/08 07:02:20;;;;;;;62.50;29.02;;;5.00;85.10;;;5.24;69.55;101232.81;5059748;28;20114;-82
2021/03/08 07:04:47;;;;;;;61.42;28.88;;;5.00;85.30;;;5.25;69.85;101240.78;5066843;28;20053;-81
2021/03/08 07:07:13;;;;;;;60.83;28.90;;;5.00;85.60;;;5.26;69.77;101233.53;5066352;28;20067;-80
2021/03/08 07:09:50;;;;;;;57.45;28.48;;;5.00;85.40;;;5.23;69.79;101233.78;5073508;28;20067;-80
2021/03/08 07:12:21;;;;;;;62.00;28.90;;;5.00;85.80;;;5.24;70.49;101246.31;5070283;28;20033;-80
2021/03/08 07:15:01;;;;;;;56.73;28.87;;;5.00;86.20;;;5.24;70.66;101254.41;5071403;28;20671;-80
2021/03/08 07:17:36;;;;;;;63.30;29.50;;;5.00;86.80;;;5.21;71.34;101244.69;5070422;28;20068;-80
2021/03/08 07:20:06;;;;;;;63.10;30.38;;;5.00;87.40;;;5.20;71.52;101248.41;5073514;28;20049;-80
2021/03/08 07:22:42;;;;;;;63.83;29.25;;;5.00;87.30;;;5.19;71.81;101256.63;5067558;28;20410;-80
2021/03/08 07:25:25;;;;;;;65.25;29.60;;;5.00;87.60;;;5.18;71.98;101263.00;5074910;28;20412;-82
2021/03/08 07:27:54;;;;;;;62.78;29.42;;;4.90;88.10;;;5.14;72.36;101258.84;5077257;28;20052;-82
2021/03/08 07:30:24;;;;;;;63.88;30.63;;;4.90;88.60;;;5.15;72.69;101266.81;5082197;28;20072;-81
2021/03/08 07:32:59;;;;;;;64.80;29.98;;;4.80;89.00;;;5.13;72.65;101262.56;5081971;28;20102;-81
2021/03/08 07:35:40;;;;;;;62.50;29.95;;;4.80;89.10;;;5.12;72.30;101258.13;5082320;28;20079;-81
2021/03/08 07:38:10;;;;;;;66.70;30.45;;;4.90;89.20;;;5.13;73.13;101265.25;5081984;28;20520;-82
2021/03/08 07:40:40;;;;;;;65.53;29.88;;;4.80;89.40;;;5.13;73.08;101268.78;5082591;28;20064;-81
2021/03/08 07:43:07;;;;;;;67.38;29.52;;;4.90;89.50;;;5.10;73.17;101269.03;5082617;28;20561;-82
2021/03/08 07:45:43;;;;;;;62.33;29.25;;;4.90;89.80;;;5.08;73.79;101271.03;5096576;28;20048;-81
2021/03/08 07:48:13;;;;;;;59.63;27.88;;;4.80;90.10;;;5.10;74.02;101279.84;5080475;28;20052;-81
2021/03/08 07:50:41;;;;;;;56.08;28.05;;;4.90;90.20;;;5.08;73.71;101277.28;5081683;28;20131;-81
2021/03/08 07:53:31;;;;;;;61.38;28.40;;;4.90;90.30;;;5.10;73.95;101279.84;5083376;28;20037;-81
2021/03/08 07:56:01;;;;;;;55.63;27.67;;;4.90;90.20;;;5.08;74.04;101271.91;5085326;28;20049;-80
2021/03/08 07:58:29;;;;;;;58.42;28.25;;;4.80;90.60;;;5.09;74.30;101270.91;5085971;28;20039;-81
2021/03/08 08:00:57;;;;;;;60.67;28.13;;;4.90;90.70;;;5.07;74.31;101278.25;5086509;28;20416;-81
2021/03/08 08:03:24;;;;;;;61.95;28.95;;;4.90;90.90;;;5.07;74.50;101270.16;5086883;28;20154;-81
2021/03/08 08:05:59;;;;;;;62.10;29.02;;;4.90;90.90;;;5.07;74.88;101272.88;5086326;28;20447;-81
2021/03/08 08:08:29;;;;;;;58.92;28.35;;;4.90;91.10;;;5.08;74.90;101277.28;5081853;28;20041;-80
2021/03/08 08:10:57;;;;;;;58.58;28.67;;;4.90;91.40;;;5.11;75.15;101276.16;5085336;28;20045;-81
2021/03/08 08:13:34;;;;;;;55.88;27.23;;;4.90;91.50;;;5.12;74.94;101282.41;5085139;28;20805;-81
2021/03/08 08:16:07;;;;;;;60.72;29.15;;;4.90;91.50;;;5.12;75.23;101282.41;5081506;28;20045;-81
2021/03/08 08:18:40;;;;;;;65.28;30.02;;;4.90;91.70;;;5.09;75.41;101278.13;5076406;28;20056;-81
2021/03/08 08:21:13;;;;;;;60.00;29.05;;;4.90;91.60;;;5.14;75.08;101275.03;5082436;28;20067;-81
2021/03/08 08:23:44;;;;;;;65.07;28.63;;;5.00;91.60;;;5.14;75.62;101277.75;5083454;28;20610;-81
2021/03/08 08:26:15;;;;;;;70.63;30.40;;;5.00;91.80;;;5.11;75.66;101280.72;5084565;28;20118;-80
2021/03/08 08:28:47;;;;;;;63.80;29.70;;;5.00;91.80;;;5.16;75.47;101273.06;5064567;28;20488;-81
2021/03/08 08:31:14;;;;;;;64.10;31.40;;;5.00;91.80;;;5.16;75.61;101276.63;5064689;28;20040;-78
2021/03/08 08:33:41;;;;;;;64.10;31.63;;;5.00;91.80;;;5.15;75.58;101274.06;5064988;28;20090;-82
2021/03/08 08:36:11;;;;;;;75.68;32.40;;;5.00;91.60;;;5.19;75.59;101272.81;5081963;28;20130;-81
2021/03/08 08:38:39;;;;;;;75.80;31.80;;;5.00;91.80;;;5.20;75.95;101279.94;5085223;28;21416;-81
2021/03/08 08:41:24;;;;;;;73.93;32.13;;;5.10;92.10;;;5.18;76.01;101271.97;5082442;28;20032;-81
2021/03/08 08:44:29;;;;;;;70.50;31.15;;;5.10;91.90;;;5.22;76.09;101280.66;5080359;28;20052;-81
2021/03/08 08:47:24;;;;;;;72.00;31.65;;;5.10;92.20;;;5.20;76.21;101274.53;5006568;28;20314;-81
2021/03/08 08:49:55;;;;;;;69.43;31.65;;;5.10;92.10;;;5.23;76.16;101274.25;5006893;28;20049;-81
2021/03/08 08:52:51;;;;;;;70.70;32.42;;;5.10;92.20;;;5.22;76.38;101267.16;5045771;28;20106;-81
2021/03/08 08:55:21;;;;;;;65.78;31.05;;;5.10;92.40;;;5.22;76.31;101273.41;5064270;28;20087;-81
2021/03/08 08:58:27;;;;;;;70.25;30.42;;;5.20;92.30;;;5.26;76.31;101268.59;5064419;28;20036;-81
2021/03/08 09:01:27;;;;;;;63.58;29.65;;;5.20;92.20;;;5.25;76.13;101267.75;5070496;28;20037;-82
2021/03/08 09:03:56;;;;;;;70.07;32.70;;;5.20;92.00;;;5.26;76.41;101268.59;5071926;28;20043;-82
2021/03/08 09:06:45;;;;;;;80.43;32.10;;;5.40;92.30;;;5.28;76.11;101267.47;5073364;28;20060;-81
2021/03/08 09:09:13;;;;;;;76.85;33.80;;;5.30;92.20;;;5.29;76.10;101266.50;5077798;28;20055;-82
2021/03/08 09:11:52;;;;;;;90.20;35.75;;;5.30;92.10;;;5.25;76.67;101275.84;5080724;28;20063;-82
2021/03/08 09:14:36;;;;;;;83.05;35.08;;;5.40;92.20;;;5.22;77.07;101277.97;5073090;28;20032;-81
2021/03/08 09:17:14;;;;;;;94.95;36.72;;;5.30;92.20;;;5.27;76.87;101273.00;5065151;28;20051;-82
2021/03/08 09:19:44;;;;;;;104.43;39.30;;;5.30;92.10;;;5.28;76.99;101269.34;5056579;28;20056;-80
2021/03/08 09:22:40;;;;;;;93.97;38.40;;;5.30;92.30;;;5.31;77.39;101269.06;5064416;28;20052;-82
2021/03/08 09:25:20;;;;;;;98.85;36.80;;;5.30;92.30;;;5.36;76.97;101265.97;5050898;28;20049;-80
2021/03/08 09:27:50;;;;;;;101.97;39.00;;;5.40;92.60;;;5.37;77.10;101262.28;5050926;28;20072;-80
2021/03/08 09:30:19;;;;;;;91.30;36.83;;;5.40;92.20;;;5.37;77.22;101256.88;5061897;28;20045;-80
2021/03/08 09:32:53;;;;;;;102.38;38.38;;;5.50;92.30;;;5.41;77.32;101261.88;5062573;28;20045;-81
2021/03/08 09:35:21;;;;;;;102.45;37.83;;;5.50;92.40;;;5.42;77.25;101262.72;5062633;28;20041;-81
2021/03/08 09:37:51;;;;;;;106.18;40.67;;;5.50;92.10;;;5.44;77.32;101261.59;5065368;28;20104;-80
2021/03/08 09:40:21;;;;;;;94.43;37.13;;;5.60;92.10;;;5.37;77.47;101271.25;5059536;28;20044;-81
2021/03/08 09:42:48;;;;;;;98.65;38.45;;;5.60;91.90;;;5.41;76.90;101270.00;5063601;28;20188;-81
2021/03/08 09:45:21;;;;;;;109.82;40.90;;;5.60;91.80;;;5.42;77.23;101263.59;5065008;28;20040;-81
2021/03/08 09:47:51;;;;;;;105.07;41.50;;;5.60;91.70;;;5.47;76.92;101260.50;5058857;28;20053;-81
2021/03/08 09:50:24;;;;;;;110.68;41.05;;;5.60;91.50;;;5.50;77.23;101271.00;5056013;28;20068;-80
2021/03/08 09:52:55;;;;;;;109.25;40.60;;;5.60;91.60;;;5.49;77.03;101263.94;5068341;28;20045;-81
2021/03/08 09:55:27;;;;;;;106.57;40.33;;;5.60;91.70;;;5.51;76.73;101270.03;5057342;28;20120;-82
2021/03/08 09:57:55;;;;;;;95.07;38.67;;;5.60;91.70;;;5.53;76.82;101270.75;5052903;28;20104;-81
2021/03/08 10:00:26;;;;;;;105.88;39.88;;;5.70;91.80;;;5.54;77.06;101271.59;5055413;28;20071;-81
2021/03/08 10:03:03;;;;;;;105.85;40.15;;;5.60;91.60;;;5.55;77.09;101267.94;5060186;28;20052;-80
2021/03/08 10:05:45;;;;;;;108.95;40.42;;;5.60;91.90;;;5.56;76.93;101264.22;5074431;28;20044;-80
2021/03/08 10:08:14;;;;;;;101.35;40.42;;;5.70;92.10;;;5.56;77.16;101264.22;5073012;28;20041;-81
2021/03/08 10:10:44;;;;;;;108.88;41.33;;;5.70;92.30;;;5.55;76.96;101263.38;5058802;28;20115;-81
2021/03/08 10:13:12;;;;;;;106.90;41.30;;;5.70;92.10;;;5.59;77.14;101256.72;5070536;28;20041;-80
2021/03/08 10:15:42;;;;;;;99.85;40.53;;;5.70;92.10;;;5.59;77.05;101258.56;5071129;28;20044;-80
2021/03/08 10:18:10;;;;;;;103.95;41.08;;;5.70;92.10;;;5.63;77.08;101273.50;5072354;28;20075;-81
2021/03/08 10:20:46;;;;;;;109.47;40.22;;;5.90;92.20;;;5.65;77.15;101276.94;5064424;28;20121;-81
2021/03/08 10:23:19;;;;;;;108.05;41.35;;;5.80;92.20;;;5.65;77.09;101276.94;5057066;28;20036;-81
2021/03/08 10:25:47;;;;;;;108.70;41.47;;;5.80;92.10;;;5.63;77.22;101270.81;5051717;28;20045;-81
2021/03/08 10:28:14;;;;;;;117.85;45.05;;;5.80;92.10;;;5.65;77.50;101272.41;5069086;28;20447;-81
2021/03/08 10:30:42;;;;;;;115.00;42.30;;;5.80;91.90;;;5.63;77.21;101266.25;5071447;28;20129;-81
2021/03/08 10:33:16;;;;;;;111.50;43.10;;;5.80;91.90;;;5.64;77.33;101270.69;5072000;28;20165;-81
2021/03/08 10:35:45;;;;;;;114.22;44.10;;;5.80;91.90;;;5.67;77.69;101272.25;5072923;28;20051;-80